Startup, Washington
Current Conditions -  °F | °C
As of 11:53 PM on Thursday 18 Dec 2014 (Local Time) from KPAE Reporting Station
Light Rain Light Rain  
Wind Chill:   Ceiling: 5000
Heat Index:   Visibility: 9mi
Dew Point:   Wind: 16mph
Humidity: 93%   Direction: 160°SSE
Pressure: 29.76"   Gusts: NA
Location:  47.87°N, 121.74°W
Report Text: KPAE 190753Z AUTO 16014KT 9SM -RA FEW039 OVC050 08/07 A2976 RMK AO2 SLP081 P0004 T00780067 400940067 TSNO
Loading
Personal Weather Stations






























Interactive Weather Map New forecast layout! Learn more

10-Day Weather Forecast

Advertisements
Track Severe Weather on mobile